KDVN/DVN METAR and TAF weather

Enter ICAO airport designator
Station Type Date Time Source
KDVN METAR 2021/03/09 10:52 UTC NOAA

KDVN 091052Z AUTO 14008KT 10SM CLR 07/01 A3023 RMK AO2 SLP234 T00670006


Station Type Date Time Source
KDVN Decoded METAR 2021/03/09 10:52 UTC NOAA

DAVENPORT MUNICIPAL AIRPORT, IA, United States (KDVN) 41-37N 90-35W 228M
Mar 09, 2021 - 05:52 AM EST / 2021.03.09 1052 UTC
Wind: from the SE (140 degrees) at 9 MPH (8 KT):0
Visibility: 10 mile(s):0
Sky conditions: clear
Temperature: 44.1 F (6.7 C)
Dew Point: 33.1 F (0.6 C)
Relative Humidity: 65%
Pressure (altimeter): 30.23 in. Hg (1023 hPa)
ob: KDVN 091052Z AUTO 14008KT 10SM CLR 07/01 A3023 RMK AO2 SLP234 T00670006
cycle: 11

Station Type Date Time Source
KDVN TAF UTC NOAA

Error!

Example: see airport list